Time;durP1;ratioP1;P1;durP2;ratioP2;P2;SDS_P1;SDS_P2;PMS_P1;PMS_P2;Temp;Humidity;BMP_temperature;BMP_pressure;BME280_temperature;BME280_humidity;BME280_pressure;Samples;Min_cycle;Max_cycle;Signal;HPM_P1;HPM_P2
2023/07/30 00:01:39;;;;;;;9.30;2.95;;;;;;;;;;5115065;28;20051;-85
2023/07/30 00:04:05;;;;;;;7.60;2.70;;;;;;;;;;5115005;28;20542;-85
2023/07/30 00:06:31;;;;;;;8.02;3.40;;;;;;;;;;5114013;28;20051;-85
2023/07/30 00:08:58;;;;;;;9.00;3.78;;;;;;;;;;5114763;28;20054;-84
2023/07/30 00:11:24;;;;;;;6.65;2.85;;;;;;;;;;5114141;28;20047;-84
2023/07/30 00:13:50;;;;;;;4.47;2.55;;;;;;;;;;5115101;28;20054;-84
2023/07/30 00:16:16;;;;;;;8.43;3.30;;;;;;;;;;5102041;28;20397;-84
2023/07/30 00:18:42;;;;;;;6.68;2.28;;;;;;;;;;5120764;28;20135;-84
2023/07/30 00:21:08;;;;;;;8.95;2.97;;;;;;;;;;5104404;28;20111;-85
2023/07/30 00:23:34;;;;;;;6.10;2.50;;;;;;;;;;5120664;28;20043;-83
2023/07/30 00:26:00;;;;;;;5.57;2.17;;;;;;;;;;5119649;28;20047;-85
2023/07/30 00:28:26;;;;;;;5.80;2.70;;;;;;;;;;5119832;28;20130;-84
2023/07/30 00:30:52;;;;;;;7.80;2.95;;;;;;;;;;5121417;28;20043;-84
2023/07/30 00:33:18;;;;;;;7.93;2.67;;;;;;;;;;5121156;28;20493;-84
2023/07/30 00:35:44;;;;;;;6.63;2.63;;;;;;;;;;5103059;28;20154;-84
2023/07/30 00:38:10;;;;;;;8.55;2.35;;;;;;;;;;5121706;28;20051;-84
2023/07/30 00:40:41;;;;;;;6.22;2.40;;;;;;;;;;5120196;28;20047;-84
2023/07/30 00:43:07;;;;;;;10.35;2.22;;;;;;;;;;5121105;28;20078;-84
2023/07/30 00:45:33;;;;;;;8.57;2.10;;;;;;;;;;5103191;28;20051;-84
2023/07/30 00:48:00;;;;;;;8.80;2.33;;;;;;;;;;5121239;28;20040;-84
2023/07/30 00:50:26;;;;;;;4.82;1.90;;;;;;;;;;5120146;28;20097;-85
2023/07/30 00:52:52;;;;;;;6.22;1.77;;;;;;;;;;5120729;28;20142;-84
2023/07/30 00:55:19;;;;;;;7.30;2.03;;;;;;;;;;5120642;28;20389;-84
2023/07/30 00:57:45;;;;;;;4.60;1.92;;;;;;;;;;5120069;28;20035;-84
2023/07/30 01:00:12;;;;;;;8.85;2.53;;;;;;;;;;5103053;28;20044;-84
2023/07/30 01:02:38;;;;;;;6.50;2.05;;;;;;;;;;5121151;28;20058;-84
2023/07/30 01:05:05;;;;;;;7.07;2.60;;;;;;;;;;5120085;28;20090;-84
2023/07/30 01:07:31;;;;;;;14.43;3.00;;;;;;;;;;5120196;28;20043;-84
2023/07/30 01:09:57;;;;;;;8.88;2.80;;;;;;;;;;5103104;28;20473;-84
2023/07/30 01:12:23;;;;;;;8.32;2.85;;;;;;;;;;5119855;28;20039;-84
2023/07/30 01:14:50;;;;;;;10.50;2.45;;;;;;;;;;5102878;28;20059;-83
2023/07/30 01:17:17;;;;;;;7.03;2.60;;;;;;;;;;5103552;28;20036;-84
2023/07/30 01:19:43;;;;;;;7.22;2.10;;;;;;;;;;5102559;28;20440;-84
2023/07/30 01:22:09;;;;;;;11.05;3.00;;;;;;;;;;5120148;28;20114;-84
2023/07/30 01:24:35;;;;;;;7.47;2.58;;;;;;;;;;5119723;28;20111;-84
2023/07/30 01:27:08;;;;;;;8.90;2.20;;;;;;;;;;5084479;28;20108;-84
2023/07/30 01:29:40;;;;;;;7.18;2.17;;;;;;;;;;5100462;28;20052;-84
2023/07/30 01:32:08;;;;;;;8.10;2.67;;;;;;;;;;5116379;28;20050;-84
2023/07/30 01:34:38;;;;;;;9.52;2.40;;;;;;;;;;5115758;28;20097;-84
2023/07/30 01:37:06;;;;;;;5.82;2.38;;;;;;;;;;5115953;28;20473;-84
2023/07/30 01:39:32;;;;;;;6.07;2.00;;;;;;;;;;5118071;28;20050;-84
2023/07/30 01:41:58;;;;;;;6.85;2.15;;;;;;;;;;5116953;28;20050;-84
2023/07/30 01:44:25;;;;;;;7.22;1.80;;;;;;;;;;5117242;28;20039;-84
2023/07/30 01:46:51;;;;;;;5.40;2.00;;;;;;;;;;5116423;28;20097;-84
2023/07/30 01:49:17;;;;;;;8.52;2.78;;;;;;;;;;5116082;28;20055;-84
2023/07/30 01:51:43;;;;;;;9.57;2.10;;;;;;;;;;5099347;28;20048;-84
2023/07/30 01:54:09;;;;;;;4.22;1.55;;;;;;;;;;5117756;28;20420;-84
2023/07/30 01:56:35;;;;;;;9.70;1.75;;;;;;;;;;5082196;28;20044;-84
2023/07/30 01:59:01;;;;;;;8.02;1.77;;;;;;;;;;5116056;28;20101;-84
2023/07/30 02:01:27;;;;;;;7.13;1.60;;;;;;;;;;5098669;28;20075;-84
2023/07/30 02:03:53;;;;;;;8.60;2.10;;;;;;;;;;5083020;28;20046;-84
2023/07/30 02:06:19;;;;;;;8.88;1.85;;;;;;;;;;5115400;28;20044;-83
2023/07/30 02:08:45;;;;;;;6.55;1.85;;;;;;;;;;5116315;28;20069;-83
2023/07/30 02:11:12;;;;;;;4.38;1.70;;;;;;;;;;5098336;28;20054;-83
2023/07/30 02:13:38;;;;;;;7.35;2.10;;;;;;;;;;5115300;28;20051;-83
2023/07/30 02:16:04;;;;;;;5.25;1.33;;;;;;;;;;5116843;28;20082;-83
2023/07/30 02:18:30;;;;;;;6.45;1.48;;;;;;;;;;5097760;28;20073;-83
2023/07/30 02:20:56;;;;;;;7.78;1.80;;;;;;;;;;5097833;28;20505;-83
2023/07/30 02:23:22;;;;;;;8.60;1.38;;;;;;;;;;5115143;28;20090;-83
2023/07/30 02:25:48;;;;;;;9.32;1.20;;;;;;;;;;5115240;28;20472;-83
2023/07/30 02:28:14;;;;;;;6.75;1.60;;;;;;;;;;5114899;28;20051;-83
2023/07/30 02:30:41;;;;;;;6.72;1.55;;;;;;;;;;5097857;28;20047;-83
2023/07/30 02:33:07;;;;;;;6.80;1.08;;;;;;;;;;5115106;28;20083;-83
2023/07/30 02:35:33;;;;;;;5.30;1.10;;;;;;;;;;5114487;28;20405;-83
2023/07/30 02:37:59;;;;;;;5.65;1.25;;;;;;;;;;5114047;28;20050;-83
2023/07/30 02:40:25;;;;;;;4.82;1.00;;;;;;;;;;5115054;28;20051;-83
2023/07/30 02:42:51;;;;;;;7.22;1.52;;;;;;;;;;5114651;28;20048;-83
2023/07/30 02:45:17;;;;;;;5.00;2.00;;;;;;;;;;5115370;28;20135;-83
2023/07/30 02:47:44;;;;;;;6.15;1.00;;;;;;;;;;5097569;28;20122;-83
2023/07/30 02:50:10;;;;;;;7.38;1.88;;;;;;;;;;5098071;28;20051;-83
2023/07/30 02:52:36;;;;;;;6.32;1.27;;;;;;;;;;5115505;28;20062;-83
2023/07/30 02:55:02;;;;;;;7.00;1.55;;;;;;;;;;5115306;28;20500;-83
2023/07/30 02:57:28;;;;;;;6.60;1.40;;;;;;;;;;5115365;28;20047;-83
2023/07/30 02:59:54;;;;;;;5.45;1.60;;;;;;;;;;5114684;28;20047;-83
2023/07/30 03:02:20;;;;;;;5.03;1.55;;;;;;;;;;5115185;28;20051;-83
2023/07/30 03:04:46;;;;;;;4.78;1.58;;;;;;;;;;5114944;28;20104;-83
2023/07/30 03:07:12;;;;;;;5.72;1.35;;;;;;;;;;5097413;28;20054;-83
2023/07/30 03:09:38;;;;;;;9.80;2.05;;;;;;;;;;5097250;28;20450;-84
2023/07/30 03:12:05;;;;;;;7.80;1.60;;;;;;;;;;5115119;28;20054;-83
2023/07/30 03:14:31;;;;;;;4.97;1.65;;;;;;;;;;5114474;28;20047;-83
2023/07/30 03:16:57;;;;;;;4.85;1.70;;;;;;;;;;5113917;28;20043;-84
2023/07/30 03:19:23;;;;;;;7.13;2.13;;;;;;;;;;5114015;28;20143;-84
2023/07/30 03:21:49;;;;;;;5.85;2.35;;;;;;;;;;5114160;28;20039;-83
2023/07/30 03:24:15;;;;;;;4.88;2.30;;;;;;;;;;5114481;28;20484;-83
2023/07/30 03:26:41;;;;;;;5.13;2.20;;;;;;;;;;5097007;28;20040;-83
2023/07/30 03:29:07;;;;;;;5.53;1.90;;;;;;;;;;5114751;28;20073;-83
2023/07/30 03:31:33;;;;;;;4.65;2.08;;;;;;;;;;5114233;28;20373;-83
2023/07/30 03:33:59;;;;;;;5.90;1.98;;;;;;;;;;5113870;28;20055;-84
2023/07/30 03:36:25;;;;;;;7.85;2.33;;;;;;;;;;5113476;28;20083;-84
2023/07/30 03:38:51;;;;;;;5.57;2.28;;;;;;;;;;5114609;28;20066;-84
2023/07/30 03:41:17;;;;;;;7.55;2.75;;;;;;;;;;5115112;28;20047;-83
2023/07/30 03:43:43;;;;;;;8.40;2.80;;;;;;;;;;5113810;28;20389;-83
2023/07/30 03:46:10;;;;;;;6.55;2.53;;;;;;;;;;5113513;28;20043;-83
2023/07/30 03:48:36;;;;;;;4.25;2.85;;;;;;;;;;5096160;28;20040;-83
2023/07/30 03:51:02;;;;;;;6.20;2.83;;;;;;;;;;5112618;28;20139;-83
2023/07/30 03:53:28;;;;;;;8.15;2.78;;;;;;;;;;5113430;28;20086;-83
2023/07/30 03:55:54;;;;;;;7.55;2.75;;;;;;;;;;5113384;28;20059;-82
2023/07/30 03:58:20;;;;;;;11.77;2.58;;;;;;;;;;5112961;28;20132;-84
2023/07/30 04:00:46;;;;;;;4.55;2.33;;;;;;;;;;5113075;28;20062;-83
2023/07/30 04:03:13;;;;;;;8.13;2.75;;;;;;;;;;5113342;28;20047;-83
2023/07/30 04:05:39;;;;;;;7.25;2.58;;;;;;;;;;5096977;28;20054;-83
2023/07/30 04:08:05;;;;;;;5.53;2.88;;;;;;;;;;5095982;28;20069;-84
2023/07/30 04:10:31;;;;;;;6.10;2.70;;;;;;;;;;5113700;28;20083;-83
2023/07/30 04:12:57;;;;;;;8.48;2.60;;;;;;;;;;5112924;28;20121;-83
2023/07/30 04:15:23;;;;;;;6.75;3.03;;;;;;;;;;5097021;28;20058;-83
2023/07/30 04:17:49;;;;;;;9.30;2.55;;;;;;;;;;5095990;28;20082;-83
2023/07/30 04:20:15;;;;;;;9.43;3.08;;;;;;;;;;5113871;28;20057;-84
2023/07/30 04:22:41;;;;;;;5.40;2.53;;;;;;;;;;5113037;28;20105;-83
2023/07/30 04:25:08;;;;;;;7.10;2.83;;;;;;;;;;5096088;28;20130;-83
2023/07/30 04:27:34;;;;;;;8.15;2.75;;;;;;;;;;5113969;28;20066;-84
2023/07/30 04:30:00;;;;;;;6.18;2.47;;;;;;;;;;5078950;28;20492;-83
2023/07/30 04:32:26;;;;;;;4.93;2.55;;;;;;;;;;5113667;28;20088;-83
2023/07/30 04:34:52;;;;;;;11.90;2.95;;;;;;;;;;5112292;28;20052;-83
2023/07/30 04:37:18;;;;;;;7.97;2.70;;;;;;;;;;5113806;28;20416;-83
2023/07/30 04:39:44;;;;;;;8.20;2.80;;;;;;;;;;5113768;28;20090;-83
2023/07/30 04:42:12;;;;;;;10.00;2.67;;;;;;;;;;5113806;28;20043;-83
2023/07/30 04:44:39;;;;;;;10.70;2.83;;;;;;;;;;5113596;28;20130;-83
2023/07/30 04:47:05;;;;;;;12.55;2.83;;;;;;;;;;5113071;28;20054;-83
2023/07/30 04:49:31;;;;;;;10.52;2.42;;;;;;;;;;5096261;28;20101;-83
2023/07/30 04:51:57;;;;;;;7.25;3.47;;;;;;;;;;5112739;28;20079;-83
2023/07/30 04:54:23;;;;;;;9.07;2.75;;;;;;;;;;5095826;28;20040;-84
2023/07/30 04:56:49;;;;;;;12.93;3.42;;;;;;;;;;5095965;28;20388;-83
2023/07/30 04:59:15;;;;;;;9.38;2.78;;;;;;;;;;5096749;28;20061;-83
2023/07/30 05:01:41;;;;;;;12.07;2.95;;;;;;;;;;5097857;28;20473;-83
2023/07/30 05:04:08;;;;;;;11.75;3.53;;;;;;;;;;5116540;28;20040;-84
2023/07/30 05:06:34;;;;;;;9.90;3.08;;;;;;;;;;5118019;28;20130;-83
2023/07/30 05:09:00;;;;;;;11.73;3.05;;;;;;;;;;5116229;28;20398;-83
2023/07/30 05:11:26;;;;;;;8.10;2.47;;;;;;;;;;5116444;28;20051;-83
2023/07/30 05:13:52;;;;;;;5.75;2.10;;;;;;;;;;5100354;28;20131;-83
2023/07/30 05:16:18;;;;;;;7.43;2.65;;;;;;;;;;5099235;28;20047;-83
2023/07/30 05:18:44;;;;;;;13.35;3.65;;;;;;;;;;5082469;28;20527;-84
2023/07/30 05:21:10;;;;;;;9.50;2.80;;;;;;;;;;5117193;28;20397;-83
2023/07/30 05:23:36;;;;;;;8.80;3.13;;;;;;;;;;5116169;28;20522;-84
2023/07/30 05:26:02;;;;;;;8.13;2.80;;;;;;;;;;5115856;28;20052;-84
2023/07/30 05:28:28;;;;;;;8.05;2.53;;;;;;;;;;5117025;28;20504;-83
2023/07/30 05:30:54;;;;;;;12.13;3.30;;;;;;;;;;5116017;28;20048;-84
2023/07/30 05:33:21;;;;;;;11.15;3.25;;;;;;;;;;5115981;28;20477;-84
2023/07/30 05:35:47;;;;;;;10.98;2.97;;;;;;;;;;5099307;28;20060;-84
2023/07/30 05:38:14;;;;;;;8.32;2.83;;;;;;;;;;5116437;28;20087;-84
2023/07/30 05:40:40;;;;;;;13.00;3.03;;;;;;;;;;5116808;28;20051;-83
2023/07/30 05:43:06;;;;;;;13.63;4.82;;;;;;;;;;5115614;28;20061;-82
2023/07/30 05:45:32;;;;;;;9.05;3.47;;;;;;;;;;5115501;28;20050;-84
2023/07/30 05:47:58;;;;;;;11.07;3.28;;;;;;;;;;5099502;28;20083;-84
2023/07/30 05:50:24;;;;;;;8.52;3.80;;;;;;;;;;5116592;28;20055;-84
2023/07/30 05:52:50;;;;;;;9.38;2.95;;;;;;;;;;5116546;28;20048;-84
2023/07/30 05:55:16;;;;;;;9.00;3.42;;;;;;;;;;5115454;28;20498;-84
2023/07/30 05:57:42;;;;;;;14.55;3.97;;;;;;;;;;5098629;28;20036;-84
2023/07/30 06:00:08;;;;;;;10.43;3.38;;;;;;;;;;5115522;28;20550;-84
2023/07/30 06:02:34;;;;;;;14.45;4.45;;;;;;;;;;5098685;28;20052;-83
2023/07/30 06:05:00;;;;;;;12.45;3.95;;;;;;;;;;5098296;28;20043;-84
2023/07/30 06:07:27;;;;;;;16.15;3.85;;;;;;;;;;5116439;28;20117;-84
2023/07/30 06:09:53;;;;;;;12.30;3.80;;;;;;;;;;5081711;28;20109;-83
2023/07/30 06:12:19;;;;;;;18.15;4.53;;;;;;;;;;5115195;28;20481;-84
2023/07/30 06:14:45;;;;;;;16.40;4.30;;;;;;;;;;5097375;28;20123;-84
2023/07/30 06:17:11;;;;;;;14.85;4.10;;;;;;;;;;5116197;28;20040;-84
2023/07/30 06:19:38;;;;;;;15.00;4.72;;;;;;;;;;5097935;28;20157;-83
2023/07/30 06:22:04;;;;;;;12.85;4.53;;;;;;;;;;5099028;28;20090;-84
2023/07/30 06:24:30;;;;;;;15.98;4.22;;;;;;;;;;5116504;28;20122;-84
2023/07/30 06:26:56;;;;;;;16.42;4.30;;;;;;;;;;5097859;28;20050;-83
2023/07/30 06:29:22;;;;;;;16.30;3.78;;;;;;;;;;5114619;28;20044;-84
2023/07/30 06:31:49;;;;;;;12.48;4.40;;;;;;;;;;5115577;28;20196;-83
2023/07/30 06:34:15;;;;;;;14.38;4.35;;;;;;;;;;5115244;28;20055;-83
2023/07/30 06:36:41;;;;;;;16.77;4.80;;;;;;;;;;5097245;28;20378;-83
2023/07/30 06:39:07;;;;;;;13.55;4.00;;;;;;;;;;5114627;28;20055;-83
2023/07/30 06:41:33;;;;;;;16.13;5.10;;;;;;;;;;5115506;28;20090;-83
2023/07/30 06:43:59;;;;;;;16.17;4.60;;;;;;;;;;5114602;28;20397;-83
2023/07/30 06:46:25;;;;;;;16.15;4.97;;;;;;;;;;5097374;28;20093;-83
2023/07/30 06:48:51;;;;;;;11.52;4.60;;;;;;;;;;5114440;28;20035;-83
2023/07/30 06:51:20;;;;;;;19.77;5.15;;;;;;;;;;5097559;28;20051;-83
2023/07/30 06:53:46;;;;;;;14.98;4.93;;;;;;;;;;5114641;28;20047;-84
2023/07/30 06:56:12;;;;;;;17.05;4.72;;;;;;;;;;5114266;28;20043;-83
2023/07/30 06:58:38;;;;;;;16.30;4.90;;;;;;;;;;5113671;28;20069;-84
2023/07/30 07:01:04;;;;;;;14.57;4.78;;;;;;;;;;5097522;28;20047;-84
2023/07/30 07:03:30;;;;;;;17.00;4.50;;;;;;;;;;5114525;28;20051;-84
2023/07/30 07:05:57;;;;;;;16.55;5.50;;;;;;;;;;5115134;28;20054;-84
2023/07/30 07:08:23;;;;;;;16.33;4.85;;;;;;;;;;5114989;28;20047;-84
2023/07/30 07:10:49;;;;;;;15.45;5.38;;;;;;;;;;5098104;28;20193;-84
2023/07/30 07:13:16;;;;;;;18.73;5.85;;;;;;;;;;5114060;28;20055;-84
2023/07/30 07:15:45;;;;;;;14.40;4.82;;;;;;;;;;5114998;28;20123;-83
2023/07/30 07:18:11;;;;;;;17.02;5.15;;;;;;;;;;5114795;28;20126;-84
2023/07/30 07:20:38;;;;;;;14.73;5.18;;;;;;;;;;5096913;28;20101;-83
2023/07/30 07:23:04;;;;;;;11.43;4.68;;;;;;;;;;5113564;28;20100;-83
2023/07/30 07:25:30;;;;;;;13.32;2.13;;;;;;;;;;5113601;28;20481;-83
2023/07/30 07:27:59;;;;;;;1.25;0.30;;;;;;;;;;5113653;28;20039;-84
2023/07/30 07:30:25;;;;;;;6.55;1.67;;;;;;;;;;5113715;28;20046;-83
2023/07/30 07:32:53;;;;;;;14.68;4.82;;;;;;;;;;5114604;28;20477;-83
2023/07/30 07:35:20;;;;;;;4.53;0.88;;;;;;;;;;5113800;28;20055;-83
2023/07/30 07:37:46;;;;;;;11.18;1.75;;;;;;;;;;5113307;28;20501;-82
2023/07/30 07:40:12;;;;;;;7.28;1.75;;;;;;;;;;5113414;28;20050;-83
2023/07/30 07:42:39;;;;;;;4.78;1.30;;;;;;;;;;5114458;28;20051;-83
2023/07/30 07:45:06;;;;;;;5.43;1.42;;;;;;;;;;5113336;28;20043;-83
2023/07/30 07:47:32;;;;;;;5.55;1.20;;;;;;;;;;5114068;28;20488;-82
2023/07/30 07:49:58;;;;;;;4.80;1.38;;;;;;;;;;5096260;28;20047;-83
2023/07/30 07:52:24;;;;;;;6.10;0.88;;;;;;;;;;5114115;28;20507;-82
2023/07/30 07:54:50;;;;;;;4.30;1.23;;;;;;;;;;5096697;28;20065;-83
2023/07/30 07:57:16;;;;;;;5.90;1.02;;;;;;;;;;5113061;28;20044;-82
2023/07/30 07:59:45;;;;;;;3.20;0.70;;;;;;;;;;5113587;28;20040;-83
2023/07/30 08:02:14;;;;;;;3.20;0.52;;;;;;;;;;5114185;28;20058;-82
2023/07/30 08:04:40;;;;;;;5.35;0.95;;;;;;;;;;5113242;28;20130;-82
2023/07/30 08:07:06;;;;;;;6.25;1.05;;;;;;;;;;5113193;28;20046;-83
2023/07/30 08:09:32;;;;;;;8.70;1.08;;;;;;;;;;5113299;28;20042;-82
2023/07/30 08:12:00;;;;;;;2.53;0.90;;;;;;;;;;5113167;28;20086;-83
2023/07/30 08:14:26;;;;;;;8.27;1.10;;;;;;;;;;5113861;28;20055;-83
2023/07/30 08:16:52;;;;;;;4.72;0.88;;;;;;;;;;5113987;28;20039;-82
2023/07/30 08:19:19;;;;;;;6.88;1.08;;;;;;;;;;5112892;28;20055;-82
2023/07/30 08:21:45;;;;;;;7.45;0.90;;;;;;;;;;5112506;28;20485;-82
2023/07/30 08:24:11;;;;;;;10.63;1.17;;;;;;;;;;5113712;28;20116;-82
2023/07/30 08:26:37;;;;;;;9.88;0.90;;;;;;;;;;5113930;28;20052;-82
2023/07/30 08:29:03;;;;;;;14.38;3.22;;;;;;;;;;5112818;28;20500;-82
2023/07/30 08:31:29;;;;;;;10.77;3.00;;;;;;;;;;5112759;28;20503;-83
2023/07/30 08:33:55;;;;;;;10.30;2.92;;;;;;;;;;5113305;28;20039;-83
2023/07/30 08:36:21;;;;;;;10.07;2.63;;;;;;;;;;5114749;28;20097;-83
2023/07/30 08:38:47;;;;;;;8.90;2.03;;;;;;;;;;5118033;28;20101;-83
2023/07/30 08:41:13;;;;;;;7.93;2.13;;;;;;;;;;5099926;28;20050;-82
2023/07/30 08:43:40;;;;;;;10.98;2.60;;;;;;;;;;5100061;28;20039;-83
2023/07/30 08:46:06;;;;;;;9.70;2.15;;;;;;;;;;5100953;28;20094;-83
2023/07/30 08:48:32;;;;;;;10.90;2.50;;;;;;;;;;5116744;28;20042;-83
2023/07/30 08:50:58;;;;;;;11.27;2.65;;;;;;;;;;5117075;28;20100;-83
2023/07/30 08:53:26;;;;;;;10.10;2.75;;;;;;;;;;5116874;28;20097;-82
2023/07/30 08:55:54;;;;;;;9.52;2.53;;;;;;;;;;5116626;28;20055;-83
2023/07/30 08:58:20;;;;;;;7.88;2.63;;;;;;;;;;5116332;28;20512;-82
2023/07/30 09:00:46;;;;;;;12.95;3.40;;;;;;;;;;5099687;28;20087;-83
2023/07/30 09:03:15;;;;;;;9.82;2.83;;;;;;;;;;5117620;28;20047;-83
2023/07/30 09:05:41;;;;;;;11.85;3.67;;;;;;;;;;5116439;28;20050;-82
2023/07/30 09:08:09;;;;;;;11.45;3.42;;;;;;;;;;5116393;28;20059;-83
2023/07/30 09:10:36;;;;;;;10.45;2.83;;;;;;;;;;5116556;28;20135;-83
2023/07/30 09:13:03;;;;;;;9.73;2.45;;;;;;;;;;5117373;28;20504;-82
2023/07/30 09:15:31;;;;;;;9.82;2.80;;;;;;;;;;5099811;28;20051;-84
2023/07/30 09:17:57;;;;;;;7.97;2.75;;;;;;;;;;5099516;28;20126;-84
2023/07/30 09:20:23;;;;;;;10.13;2.53;;;;;;;;;;5117406;28;20188;-83
2023/07/30 09:22:50;;;;;;;12.18;2.28;;;;;;;;;;5082642;28;20439;-84
2023/07/30 09:25:20;;;;;;;12.10;3.22;;;;;;;;;;5099524;28;20425;-84
2023/07/30 09:27:49;;;;;;;7.32;1.85;;;;;;;;;;5117034;28;20083;-83
2023/07/30 09:30:15;;;;;;;12.05;2.75;;;;;;;;;;5116172;28;20059;-84
2023/07/30 09:32:41;;;;;;;11.27;2.67;;;;;;;;;;5116060;28;20051;-84
2023/07/30 09:35:11;;;;;;;12.32;2.92;;;;;;;;;;5115687;28;20478;-83
2023/07/30 09:37:39;;;;;;;7.32;2.35;;;;;;;;;;5116294;28;20381;-84
2023/07/30 09:40:06;;;;;;;9.75;3.15;;;;;;;;;;5117290;28;20450;-83
2023/07/30 09:42:35;;;;;;;7.95;2.55;;;;;;;;;;5115951;28;20058;-84
2023/07/30 09:45:01;;;;;;;9.00;2.38;;;;;;;;;;5115869;28;20396;-84
2023/07/30 09:47:27;;;;;;;6.57;1.38;;;;;;;;;;5081756;28;20495;-83
2023/07/30 09:49:54;;;;;;;6.15;1.30;;;;;;;;;;5116129;28;20046;-83
2023/07/30 09:52:22;;;;;;;6.53;1.63;;;;;;;;;;5099007;28;20100;-83
2023/07/30 09:54:52;;;;;;;6.53;1.60;;;;;;;;;;5115714;28;20157;-82
2023/07/30 09:57:18;;;;;;;6.85;1.42;;;;;;;;;;5098717;28;20054;-82
2023/07/30 09:59:45;;;;;;;5.65;1.25;;;;;;;;;;5082135;28;20489;-83
2023/07/30 10:02:11;;;;;;;4.97;0.82;;;;;;;;;;5115776;28;20474;-84
2023/07/30 10:04:41;;;;;;;9.52;1.08;;;;;;;;;;5116653;28;20054;-84
2023/07/30 10:07:09;;;;;;;8.98;1.27;;;;;;;;;;5115494;28;20094;-83
2023/07/30 10:09:43;;;;;;;10.15;1.98;;;;;;;;;;5115377;28;20043;-84
2023/07/30 10:12:09;;;;;;;6.43;1.42;;;;;;;;;;5115625;28;20047;-83
2023/07/30 10:14:35;;;;;;;3.92;1.25;;;;;;;;;;5098032;28;20048;-83
2023/07/30 10:17:01;;;;;;;6.88;1.20;;;;;;;;;;5116125;28;20130;-82
2023/07/30 10:19:28;;;;;;;5.15;0.60;;;;;;;;;;5115183;28;20044;-84
2023/07/30 10:22:14;;;;;;;4.82;0.50;;;;;;;;;;5098248;28;20088;-83
2023/07/30 10:24:41;;;;;;;6.30;1.38;;;;;;;;;;5101328;28;20054;-84
2023/07/30 10:27:08;;;;;;;4.97;1.13;;;;;;;;;;5115537;28;20047;-83
2023/07/30 10:29:39;;;;;;;5.90;0.73;;;;;;;;;;5114892;28;20051;-83
2023/07/30 10:32:05;;;;;;;5.50;0.80;;;;;;;;;;5082393;28;20044;-84
2023/07/30 10:34:44;;;;;;;6.93;0.82;;;;;;;;;;5116353;28;20094;-84
2023/07/30 10:37:11;;;;;;;6.47;0.90;;;;;;;;;;5114575;28;20108;-83
2023/07/30 10:39:37;;;;;;;4.43;0.60;;;;;;;;;;5115858;28;20043;-84
2023/07/30 10:42:03;;;;;;;6.05;0.50;;;;;;;;;;5115157;28;20058;-83
2023/07/30 10:44:33;;;;;;;3.17;0.40;;;;;;;;;;5115493;28;20051;-85
2023/07/30 10:47:00;;;;;;;2.85;0.60;;;;;;;;;;5115041;28;20393;-82
2023/07/30 10:49:26;;;;;;;4.80;0.82;;;;;;;;;;5114640;28;20108;-83
2023/07/30 10:51:59;;;;;;;3.20;0.47;;;;;;;;;;5114555;28;20485;-83
2023/07/30 10:54:25;;;;;;;6.00;0.40;;;;;;;;;;5114737;28;20043;-84
2023/07/30 10:56:52;;;;;;;5.97;0.70;;;;;;;;;;5097650;28;20032;-83
2023/07/30 10:59:18;;;;;;;3.15;0.50;;;;;;;;;;5114952;28;20040;-84
2023/07/30 11:01:45;;;;;;;4.43;0.60;;;;;;;;;;5114657;28;20083;-85
2023/07/30 11:04:15;;;;;;;3.65;0.60;;;;;;;;;;5114690;28;20048;-84
2023/07/30 11:06:46;;;;;;;4.88;0.70;;;;;;;;;;5098176;28;20040;-83
2023/07/30 11:09:23;;;;;;;3.50;0.50;;;;;;;;;;5114172;28;20052;-83
2023/07/30 11:11:50;;;;;;;6.38;0.63;;;;;;;;;;5114986;28;20054;-83
2023/07/30 11:14:20;;;;;;;2.72;0.55;;;;;;;;;;5115006;28;20043;-83
2023/07/30 11:16:54;;;;;;;3.33;0.38;;;;;;;;;;5114967;28;20039;-85
2023/07/30 11:19:20;;;;;;;3.33;0.43;;;;;;;;;;5114244;28;20044;-85
2023/07/30 11:21:46;;;;;;;3.55;0.40;;;;;;;;;;5114025;28;20138;-83
2023/07/30 11:24:12;;;;;;;5.25;0.50;;;;;;;;;;5114428;28;20097;-84
2023/07/30 11:26:38;;;;;;;3.13;0.30;;;;;;;;;;5097778;28;20059;-83
2023/07/30 11:29:17;;;;;;;7.25;0.40;;;;;;;;;;5115901;28;20044;-84
2023/07/30 11:31:44;;;;;;;3.30;0.30;;;;;;;;;;5097329;28;20052;-84
2023/07/30 11:34:10;;;;;;;3.42;0.55;;;;;;;;;;5113924;28;20058;-82
2023/07/30 11:36:37;;;;;;;3.40;0.40;;;;;;;;;;5113692;28;20063;-84
2023/07/30 11:39:04;;;;;;;4.63;0.30;;;;;;;;;;5113868;28;20058;-83
2023/07/30 11:41:30;;;;;;;4.07;0.55;;;;;;;;;;5113791;28;20047;-83
2023/07/30 11:43:56;;;;;;;4.38;0.50;;;;;;;;;;5096936;28;20096;-83
2023/07/30 11:46:22;;;;;;;5.10;0.57;;;;;;;;;;5096659;28;20561;-83
2023/07/30 11:48:49;;;;;;;2.78;0.40;;;;;;;;;;5113623;28;20047;-83
2023/07/30 11:51:22;;;;;;;6.05;0.50;;;;;;;;;;5097053;28;20470;-83
2023/07/30 11:53:53;;;;;;;4.95;0.70;;;;;;;;;;5114488;28;20105;-83
2023/07/30 11:56:22;;;;;;;4.65;0.47;;;;;;;;;;5113639;28;20047;-83
2023/07/30 11:58:48;;;;;;;5.10;0.70;;;;;;;;;;5096472;28;20050;-83
2023/07/30 12:01:16;;;;;;;3.50;0.30;;;;;;;;;;5114816;28;20513;-82
2023/07/30 12:03:42;;;;;;;4.30;0.40;;;;;;;;;;5114047;28;20563;-84
2023/07/30 12:06:09;;;;;;;3.95;0.30;;;;;;;;;;5115002;28;20051;-83
2023/07/30 12:08:35;;;;;;;2.95;0.40;;;;;;;;;;5115290;28;20039;-82
2023/07/30 12:11:06;;;;;;;3.08;0.50;;;;;;;;;;5096478;28;20051;-82
2023/07/30 12:13:32;;;;;;;5.63;0.50;;;;;;;;;;5114469;28;20048;-83
2023/07/30 12:15:59;;;;;;;2.42;0.30;;;;;;;;;;5113410;28;20057;-83
2023/07/30 12:18:25;;;;;;;3.88;0.30;;;;;;;;;;5095967;28;20039;-83
2023/07/30 12:20:52;;;;;;;3.30;0.30;;;;;;;;;;5113596;28;20051;-83
2023/07/30 12:23:18;;;;;;;4.38;0.40;;;;;;;;;;5112847;28;20044;-83
2023/07/30 12:25:46;;;;;;;3.45;0.30;;;;;;;;;;5114291;28;20086;-84
2023/07/30 12:28:12;;;;;;;3.25;0.30;;;;;;;;;;5112962;28;20051;-83
2023/07/30 12:30:38;;;;;;;5.53;0.47;;;;;;;;;;5114083;28;20051;-83
2023/07/30 12:33:05;;;;;;;3.17;0.40;;;;;;;;;;5113157;28;20044;-83
2023/07/30 12:35:32;;;;;;;3.70;0.50;;;;;;;;;;5113336;28;20048;-83
2023/07/30 12:37:59;;;;;;;5.03;0.63;;;;;;;;;;5113150;28;20498;-83
2023/07/30 12:40:25;;;;;;;1.55;0.22;;;;;;;;;;5114051;28;20055;-83
2023/07/30 12:42:51;;;;;;;2.75;0.30;;;;;;;;;;5112978;28;20046;-83
2023/07/30 12:45:17;;;;;;;3.80;0.30;;;;;;;;;;5079434;28;20504;-83
2023/07/30 12:47:45;;;;;;;2.95;0.47;;;;;;;;;;5113085;28;20123;-83
2023/07/30 12:50:11;;;;;;;2.35;0.30;;;;;;;;;;5112917;28;20051;-83
2023/07/30 12:52:37;;;;;;;2.30;0.40;;;;;;;;;;5113046;28;20048;-83
2023/07/30 12:55:04;;;;;;;2.53;0.47;;;;;;;;;;5114415;28;20050;-82
2023/07/30 12:57:30;;;;;;;3.42;0.28;;;;;;;;;;5112523;28;20047;-84
2023/07/30 12:59:57;;;;;;;3.55;0.40;;;;;;;;;;5096082;28;20048;-84
2023/07/30 13:02:23;;;;;;;3.03;0.40;;;;;;;;;;5112827;28;20397;-81
2023/07/30 13:04:50;;;;;;;3.17;0.30;;;;;;;;;;5112830;28;20112;-81
2023/07/30 13:07:16;;;;;;;2.75;0.20;;;;;;;;;;5113742;28;20094;-83
2023/07/30 13:09:42;;;;;;;3.67;0.20;;;;;;;;;;5096873;28;20050;-82
2023/07/30 13:12:08;;;;;;;3.55;0.30;;;;;;;;;;5112764;28;20059;-84
2023/07/30 13:14:34;;;;;;;3.17;0.40;;;;;;;;;;5079446;28;20103;-84
2023/07/30 13:17:00;;;;;;;4.55;0.30;;;;;;;;;;5095879;28;20043;-82
2023/07/30 13:19:28;;;;;;;5.47;0.50;;;;;;;;;;5096043;28;20051;-84
2023/07/30 13:21:54;;;;;;;3.97;0.38;;;;;;;;;;5113185;28;20546;-84
2023/07/30 13:24:20;;;;;;;2.80;0.30;;;;;;;;;;5117093;28;20122;-85
2023/07/30 13:26:46;;;;;;;4.00;0.40;;;;;;;;;;5116709;28;20082;-84
2023/07/30 13:29:12;;;;;;;4.57;0.45;;;;;;;;;;5099527;28;20043;-83
2023/07/30 13:31:38;;;;;;;3.92;0.40;;;;;;;;;;5099978;28;20610;-85
2023/07/30 13:34:04;;;;;;;2.85;0.50;;;;;;;;;;5116547;28;20082;-85
2023/07/30 13:36:30;;;;;;;2.15;0.30;;;;;;;;;;5099645;28;20056;-83
2023/07/30 13:38:56;;;;;;;4.30;0.30;;;;;;;;;;5116746;28;20485;-85
2023/07/30 13:41:22;;;;;;;3.80;0.40;;;;;;;;;;5099642;28;20044;-85
2023/07/30 13:43:48;;;;;;;2.70;0.30;;;;;;;;;;5100196;28;20536;-85
2023/07/30 13:46:14;;;;;;;5.82;0.40;;;;;;;;;;5117737;28;20047;-83
2023/07/30 13:48:41;;;;;;;4.40;0.40;;;;;;;;;;5116630;28;20046;-82
2023/07/30 13:51:07;;;;;;;3.55;0.55;;;;;;;;;;5116815;28;20051;-81
2023/07/30 13:53:34;;;;;;;4.00;0.63;;;;;;;;;;5115825;28;20047;-82
2023/07/30 13:56:01;;;;;;;3.40;0.43;;;;;;;;;;5099251;28;20043;-81
2023/07/30 13:58:27;;;;;;;4.70;0.52;;;;;;;;;;5117191;28;20044;-82
2023/07/30 14:00:55;;;;;;;3.85;0.38;;;;;;;;;;5116722;28;20485;-82
2023/07/30 14:03:21;;;;;;;3.67;0.40;;;;;;;;;;5116142;28;20051;-84
2023/07/30 14:05:47;;;;;;;2.65;0.30;;;;;;;;;;5116606;28;20097;-80
2023/07/30 14:08:13;;;;;;;3.25;0.35;;;;;;;;;;5116450;28;20086;-81
2023/07/30 14:10:39;;;;;;;1.88;0.22;;;;;;;;;;5116959;28;20059;-84
2023/07/30 14:13:05;;;;;;;3.65;0.30;;;;;;;;;;5115947;28;20047;-83
2023/07/30 14:15:32;;;;;;;6.88;0.40;;;;;;;;;;5099707;28;20044;-83
2023/07/30 14:17:58;;;;;;;2.05;0.30;;;;;;;;;;5098372;28;20043;-82
2023/07/30 14:20:24;;;;;;;9.18;0.35;;;;;;;;;;5099274;28;20500;-83
2023/07/30 14:22:51;;;;;;;3.55;0.50;;;;;;;;;;5116456;28;20047;-85
2023/07/30 14:25:17;;;;;;;3.35;0.30;;;;;;;;;;5117476;28;20054;-87
2023/07/30 14:27:43;;;;;;;5.50;0.30;;;;;;;;;;5116985;28;20074;-88
2023/07/30 14:30:10;;;;;;;3.47;0.30;;;;;;;;;;5099653;28;20134;-87
2023/07/30 14:32:36;;;;;;;4.13;0.22;;;;;;;;;;5116551;28;20046;-87
2023/07/30 14:35:02;;;;;;;2.92;0.22;;;;;;;;;;5099228;28;20053;-88
2023/07/30 14:37:28;;;;;;;2.53;0.20;;;;;;;;;;5118296;28;20058;-88